Aviation Digital Data Service (ADDS)

Output produced by TAFs form (0925 UTC 29 July 2015)
found at http://aviationweather.gov/adds/tafs/
 
KCNY 290529Z 2906/3006 33006KT P6SM SKC 
     FM291400 06004KT P6SM SKC 
     FM291900 33008KT P6SM SCT250